createdAt,value
2023-02-22T00:00:48.970Z,98899.04
2023-02-22T00:03:52.797Z,98903.84
2023-02-22T00:06:42.745Z,98907.54
2023-02-22T00:09:23.966Z,98904.70
2023-02-22T00:12:05.288Z,98906.89
2023-02-22T00:14:43.023Z,98909.24
2023-02-22T00:17:23.747Z,98907.86
2023-02-22T00:20:00.205Z,98910.06
2023-02-22T00:22:33.500Z,98911.80
2023-02-22T00:25:07.352Z,98918.09
2023-02-22T00:27:48.759Z,98919.25
2023-02-22T00:30:31.215Z,98917.04
2023-02-22T00:33:06.386Z,98916.73
2023-02-22T00:35:46.284Z,98916.36
2023-02-22T00:38:42.274Z,98922.56
2023-02-22T00:41:22.369Z,98922.19
2023-02-22T00:43:55.466Z,98921.27
2023-02-22T00:46:32.904Z,98915.08
2023-02-22T00:49:08.816Z,98919.70
2023-02-22T00:51:43.682Z,98914.77
2023-02-22T00:54:18.628Z,98914.37
2023-02-22T00:56:54.693Z,98915.00
2023-02-22T00:59:30.412Z,98911.03
2023-02-22T01:02:03.858Z,98909.39
2023-02-22T01:04:40.307Z,98909.92
2023-02-22T01:07:18.683Z,98908.91
2023-02-22T01:09:49.934Z,98902.38
2023-02-22T01:12:24.017Z,98900.80
2023-02-22T01:15:01.058Z,98898.14
2023-02-22T01:17:36.427Z,98901.10
2023-02-22T01:20:15.423Z,98897.70
2023-02-22T01:22:53.896Z,98893.11
2023-02-22T01:25:25.503Z,98889.38
2023-02-22T01:28:01.986Z,98885.75
2023-02-22T01:30:36.802Z,98885.19
2023-02-22T01:33:12.926Z,98884.36
2023-02-22T01:35:46.998Z,98881.23
2023-02-22T01:38:22.878Z,98881.61
2023-02-22T01:40:58.385Z,98879.31
2023-02-22T01:43:36.067Z,98872.20
2023-02-22T01:46:08.517Z,98868.91
2023-02-22T01:48:53.234Z,98869.92
2023-02-22T01:51:28.320Z,98867.94
2023-02-22T01:54:05.099Z,98863.38
2023-02-22T01:56:43.008Z,98866.54
2023-02-22T01:59:17.832Z,98871.63
2023-02-22T02:01:58.597Z,98864.95
2023-02-22T02:04:35.376Z,98869.45
2023-02-22T02:07:06.336Z,98873.08
2023-02-22T02:09:49.999Z,98870.69
2023-02-22T02:12:29.315Z,98873.48
2023-02-22T02:15:42.119Z,98870.06
2023-02-22T02:18:18.949Z,98872.56
2023-02-22T02:21:24.348Z,98872.14
2023-02-22T02:24:23.163Z,98874.80
2023-02-22T02:27:29.538Z,98872.11
2023-02-22T02:30:20.491Z,98873.58
2023-02-22T02:33:16.114Z,98872.80
2023-02-22T02:35:58.800Z,98876.85
2023-02-22T02:38:44.172Z,98880.57
2023-02-22T02:41:40.132Z,98879.98
2023-02-22T02:44:22.651Z,98879.75
2023-02-22T02:47:14.529Z,98877.83
2023-02-22T02:49:59.441Z,98884.85
2023-02-22T02:52:39.925Z,98886.85
2023-02-22T02:55:21.752Z,98887.27
2023-02-22T02:58:00.330Z,98887.19
2023-02-22T03:00:43.496Z,98894.83
2023-02-22T03:03:37.669Z,98902.83
2023-02-22T03:06:25.027Z,98906.64
2023-02-22T03:09:21.503Z,98909.58
2023-02-22T03:12:13.105Z,98906.48
2023-02-22T03:15:30.368Z,98910.27
2023-02-22T03:18:17.936Z,98904.72
2023-02-22T03:21:23.840Z,98920.36
2023-02-22T03:24:34.172Z,98920.86
2023-02-22T03:27:21.621Z,98917.34
2023-02-22T03:30:03.495Z,98917.91
2023-02-22T03:32:45.782Z,98921.26
2023-02-22T03:35:24.021Z,98924.41
2023-02-22T03:38:05.464Z,98925.66
2023-02-22T03:40:57.021Z,98925.40
2023-02-22T03:43:54.723Z,98924.98
2023-02-22T03:46:36.329Z,98923.87
2023-02-22T03:49:48.660Z,98928.66
2023-02-22T03:52:44.210Z,98932.59
2023-02-22T03:55:52.003Z,98928.64
2023-02-22T03:58:38.696Z,98932.80
2023-02-22T04:01:20.564Z,98931.50
2023-02-22T04:04:01.706Z,98934.27
2023-02-22T04:06:33.562Z,98936.23
2023-02-22T04:09:15.060Z,98934.70
2023-02-22T04:11:59.318Z,98934.39
2023-02-22T04:14:38.809Z,98937.34
2023-02-22T04:17:18.185Z,98937.06
2023-02-22T04:19:57.574Z,98944.98
2023-02-22T04:22:46.620Z,98945.33
2023-02-22T04:25:26.312Z,98947.06
2023-02-22T04:28:04.226Z,98949.83
2023-02-22T04:30:44.884Z,98951.08
2023-02-22T04:33:16.555Z,98948.54
2023-02-22T04:35:51.706Z,98950.64
2023-02-22T04:38:25.810Z,98948.58
2023-02-22T04:41:01.556Z,98948.21
2023-02-22T04:43:35.602Z,98953.86
2023-02-22T04:46:26.025Z,98959.35
2023-02-22T04:48:57.911Z,98962.55
2023-02-22T04:51:32.935Z,98965.58
2023-02-22T04:54:10.150Z,98966.75
2023-02-22T04:56:42.730Z,98964.25
2023-02-22T04:59:17.145Z,98968.52
2023-02-22T05:01:48.679Z,98964.02
2023-02-22T05:04:16.872Z,98964.51
2023-02-22T05:06:48.709Z,98962.05
2023-02-22T05:09:21.730Z,98963.77
2023-02-22T05:11:54.984Z,98964.42
2023-02-22T05:14:28.819Z,98967.40
2023-02-22T05:17:00.336Z,98966.39
2023-02-22T05:19:31.208Z,98966.77
2023-02-22T05:22:02.062Z,98962.66
2023-02-22T05:24:35.756Z,98962.93
2023-02-22T05:27:04.218Z,98961.62
2023-02-22T05:29:38.734Z,98963.22
2023-02-22T05:32:07.158Z,98968.27
2023-02-22T05:34:43.769Z,98966.40
2023-02-22T05:37:14.417Z,98968.82
2023-02-22T05:39:48.208Z,98967.80
2023-02-22T05:42:22.213Z,98973.35
2023-02-22T05:44:58.111Z,98978.15
2023-02-22T05:47:27.138Z,98983.00
2023-02-22T05:50:01.778Z,98986.09
2023-02-22T05:52:30.105Z,98986.92
2023-02-22T05:55:05.810Z,98991.02
2023-02-22T05:57:36.903Z,98997.48
2023-02-22T06:00:07.069Z,99000.55
2023-02-22T06:02:45.377Z,99003.30
2023-02-22T06:05:16.748Z,99004.86
2023-02-22T06:07:52.346Z,99008.83
2023-02-22T06:10:25.495Z,99006.95
2023-02-22T06:12:56.606Z,99009.19
2023-02-22T06:15:27.669Z,99008.69
2023-02-22T06:17:56.700Z,99010.60
2023-02-22T06:20:26.021Z,99015.83
2023-02-22T06:22:57.756Z,99018.42
2023-02-22T06:25:34.446Z,99018.92
2023-02-22T06:28:07.886Z,99023.94
2023-02-22T06:30:41.139Z,99029.42
2023-02-22T06:33:12.865Z,99034.40
2023-02-22T06:35:43.934Z,99033.37
2023-02-22T06:38:22.835Z,99041.13
2023-02-22T06:40:55.358Z,99037.86
2023-02-22T06:43:30.997Z,99037.48
2023-02-22T06:46:01.705Z,99032.23
2023-02-22T06:48:34.504Z,99032.64
2023-02-22T06:51:08.338Z,99038.05
2023-02-22T06:53:49.363Z,99035.02
2023-02-22T06:56:23.536Z,99039.00
2023-02-22T06:58:51.573Z,99042.16
2023-02-22T07:01:22.058Z,99041.17
2023-02-22T07:03:58.852Z,99042.23
2023-02-22T07:06:37.560Z,99042.08
2023-02-22T07:09:37.246Z,99040.25
2023-02-22T07:12:22.712Z,99036.70
2023-02-22T07:14:57.302Z,99039.39
2023-02-22T07:17:48.099Z,99038.26
2023-02-22T07:20:37.086Z,99041.29
2023-02-22T07:23:24.272Z,99040.70
2023-02-22T07:26:03.572Z,99040.07
2023-02-22T07:28:42.048Z,99039.16
2023-02-22T07:31:10.454Z,99037.89
2023-02-22T07:33:44.780Z,99039.20
2023-02-22T07:36:23.378Z,99039.54
2023-02-22T07:39:03.291Z,99039.52
2023-02-22T07:41:41.222Z,99039.35
2023-02-22T07:44:45.817Z,99036.40
2023-02-22T07:47:47.908Z,99041.62
2023-02-22T07:50:32.397Z,99044.76
2023-02-22T07:53:24.720Z,99049.65
2023-02-22T07:56:11.626Z,99047.02
2023-02-22T07:59:01.516Z,99046.82
2023-02-22T08:01:52.228Z,99043.91
2023-02-22T08:04:28.100Z,99045.38
2023-02-22T08:06:59.268Z,99046.06
2023-02-22T08:09:32.887Z,99049.73
2023-02-22T08:12:07.704Z,99055.14
2023-02-22T08:14:36.162Z,99058.31
2023-02-22T08:17:09.759Z,99065.91
2023-02-22T08:19:43.319Z,99064.06
2023-02-22T08:22:11.419Z,99065.87
2023-02-22T08:24:40.720Z,99069.73
2023-02-22T08:27:11.664Z,99068.60
2023-02-22T08:29:45.753Z,99071.26
2023-02-22T08:32:14.277Z,99071.27
2023-02-22T08:34:43.142Z,99061.50
2023-02-22T08:37:16.884Z,99068.70
2023-02-22T08:39:50.738Z,99063.29
2023-02-22T08:42:24.022Z,99063.56
2023-02-22T08:44:52.559Z,99065.15
2023-02-22T08:47:21.337Z,99067.42
2023-02-22T08:49:49.989Z,99064.80
2023-02-22T08:52:26.199Z,99066.55
2023-02-22T08:54:56.700Z,99066.46
2023-02-22T08:57:31.876Z,99064.08
2023-02-22T09:00:00.570Z,99068.57
2023-02-22T09:02:34.318Z,99068.66
2023-02-22T09:05:11.495Z,99066.63
2023-02-22T09:07:46.165Z,99066.55
2023-02-22T09:10:21.739Z,99063.05
2023-02-22T09:12:55.514Z,99061.45
2023-02-22T09:15:27.020Z,99060.77
2023-02-22T09:17:56.086Z,99061.27
2023-02-22T09:20:34.703Z,99062.23
2023-02-22T09:23:06.871Z,99060.42
2023-02-22T09:25:40.189Z,99057.66
2023-02-22T09:28:13.499Z,99055.30
2023-02-22T09:30:44.190Z,99059.04
2023-02-22T09:33:16.887Z,99058.70
2023-02-22T09:35:53.130Z,99055.73
2023-02-22T09:38:30.135Z,99057.79
2023-02-22T09:41:39.660Z,99051.11
2023-02-22T09:44:24.649Z,99054.05
2023-02-22T09:46:56.825Z,99051.24
2023-02-22T09:49:37.904Z,99053.33
2023-02-22T09:55:37.703Z,99053.92
2023-02-22T10:02:29.011Z,99047.65
2023-02-22T10:05:16.446Z,99038.83
2023-02-22T10:07:48.000Z,99039.14
2023-02-22T10:10:38.411Z,99036.39
2023-02-22T10:17:07.967Z,99032.48
2023-02-22T10:20:07.360Z,99030.61
2023-02-22T10:25:47.642Z,99027.86
2023-02-22T10:28:32.562Z,99025.82
2023-02-22T10:31:21.000Z,99018.11
2023-02-22T10:33:55.755Z,99018.34
2023-02-22T10:36:33.161Z,99016.20
2023-02-22T10:39:23.239Z,99016.33
2023-02-22T10:42:06.136Z,99008.89
2023-02-22T10:44:43.405Z,99008.40
2023-02-22T10:47:21.770Z,99003.36
2023-02-22T10:50:05.769Z,99001.58
2023-02-22T10:52:43.981Z,98998.74
2023-02-22T10:55:16.686Z,98995.18
2023-02-22T10:57:51.094Z,98992.48
2023-02-22T11:00:26.548Z,98991.70
2023-02-22T11:03:03.316Z,98985.09
2023-02-22T11:05:39.218Z,98983.55
2023-02-22T11:08:41.178Z,98978.52
2023-02-22T11:11:25.988Z,98977.58
2023-02-22T11:14:00.199Z,98977.83
2023-02-22T11:16:38.357Z,98979.30
2023-02-22T11:19:40.283Z,98975.36
2023-02-22T11:22:37.855Z,98970.38
2023-02-22T11:25:22.422Z,98973.55
2023-02-22T11:27:56.440Z,98966.72
2023-02-22T11:59:49.820Z,98959.84
2023-02-22T12:02:56.361Z,98957.20
2023-02-22T12:05:59.733Z,98952.88
2023-02-22T12:08:43.601Z,98952.52
2023-02-22T12:11:13.036Z,98952.38
2023-02-22T12:14:12.854Z,98953.94
2023-02-22T12:16:54.636Z,98950.98
2023-02-22T12:19:39.478Z,98948.48
2023-02-22T12:22:21.477Z,98943.50
2023-02-22T12:25:09.737Z,98948.55
2023-02-22T12:27:52.514Z,98945.14
2023-02-22T12:30:31.519Z,98938.19
2023-02-22T12:33:06.384Z,98935.55
2023-02-22T12:35:38.299Z,98931.71
2023-02-22T12:38:17.240Z,98939.08
2023-02-22T12:41:00.247Z,98933.67
2023-02-22T12:43:41.298Z,98937.92
2023-02-22T12:46:20.462Z,98932.96
2023-02-22T12:49:05.324Z,98935.17
2023-02-22T12:51:52.106Z,98925.52
2023-02-22T12:55:00.641Z,98926.52
2023-02-22T12:57:51.280Z,98926.70
2023-02-22T13:00:26.640Z,98925.13
2023-02-22T13:03:09.359Z,98933.45
2023-02-22T13:05:40.303Z,98937.11
2023-02-22T13:08:33.705Z,98940.58
2023-02-22T13:11:07.770Z,98938.83
2023-02-22T13:14:13.469Z,98940.72
2023-02-22T13:16:55.301Z,98942.83
2023-02-22T13:19:40.356Z,98945.89
2023-02-22T13:22:26.807Z,98938.13
2023-02-22T13:25:09.294Z,98942.14
2023-02-22T13:27:47.541Z,98938.41
2023-02-22T13:30:25.856Z,98939.45
2023-02-22T13:33:15.026Z,98940.77
2023-02-22T13:35:55.875Z,98941.20
2023-02-22T13:38:49.489Z,98940.95
2023-02-22T13:41:23.047Z,98941.05
2023-02-22T13:44:07.415Z,98937.77
2023-02-22T13:47:04.593Z,98936.86
2023-02-22T13:49:51.306Z,98942.46
2023-02-22T13:52:26.794Z,98940.20
2023-02-22T13:55:18.244Z,98936.24
2023-02-22T13:57:52.154Z,98938.63
2023-02-22T14:00:40.909Z,98939.81
2023-02-22T14:03:36.010Z,98943.40
2023-02-22T14:06:06.474Z,98941.84
2023-02-22T14:08:34.898Z,98939.88
2023-02-22T14:11:06.399Z,98937.69
2023-02-22T14:14:19.401Z,98941.33
2023-02-22T14:17:21.879Z,98940.04
2023-02-22T14:20:19.633Z,98942.02
2023-02-22T14:22:53.147Z,98943.93
2023-02-22T14:25:45.197Z,98947.07
2023-02-22T14:28:44.031Z,98949.66
2023-02-22T14:31:37.694Z,98951.42
2023-02-22T14:34:17.522Z,98954.04
2023-02-22T14:36:58.399Z,98958.71
2023-02-22T14:39:48.425Z,98957.25
2023-02-22T14:42:41.969Z,98958.00
2023-02-22T14:45:32.048Z,98962.52
2023-02-22T14:48:39.628Z,98964.99
2023-02-22T14:51:29.394Z,98964.61
2023-02-22T14:54:40.080Z,98963.59
2023-02-22T14:57:49.800Z,98967.27
2023-02-22T15:00:36.514Z,98965.72
2023-02-22T15:03:19.305Z,98965.77
2023-02-22T15:05:53.126Z,98964.56
2023-02-22T15:08:32.241Z,98967.80
2023-02-22T15:11:08.322Z,98966.80
2023-02-22T15:13:51.486Z,98967.77
2023-02-22T15:16:23.069Z,98967.34
2023-02-22T15:19:00.588Z,98968.84
2023-02-22T15:21:30.772Z,98968.31
2023-02-22T15:24:05.423Z,98972.46
2023-02-22T15:27:00.835Z,98972.83
2023-02-22T15:29:38.678Z,98977.08
2023-02-22T15:32:34.006Z,98979.44
2023-02-22T15:35:36.199Z,98979.94
2023-02-22T15:38:18.897Z,98978.83
2023-02-22T15:41:00.788Z,98977.79
2023-02-22T15:43:32.785Z,98976.38
2023-02-22T15:46:09.502Z,98974.65
2023-02-22T15:49:21.606Z,98977.81
2023-02-22T15:52:20.143Z,98980.84
2023-02-22T15:54:56.238Z,98982.64
2023-02-22T15:57:30.626Z,98981.46
2023-02-22T16:00:07.587Z,98987.18
2023-02-22T16:02:52.021Z,98990.95
2023-02-22T16:05:20.705Z,98991.48
2023-02-22T16:07:54.851Z,98991.06
2023-02-22T16:10:32.682Z,98995.50
2023-02-22T16:13:31.691Z,98994.90
2023-02-22T16:16:02.892Z,99003.69
2023-02-22T16:18:37.148Z,99003.90
2023-02-22T16:21:17.038Z,98997.53
2023-02-22T16:24:13.818Z,99003.11
2023-02-22T16:27:07.993Z,99003.48
2023-02-22T16:29:39.391Z,99011.82
2023-02-22T16:32:13.652Z,99010.61
2023-02-22T16:34:42.421Z,99021.17
2023-02-22T16:37:22.407Z,99025.15
2023-02-22T16:39:54.012Z,99028.95
2023-02-22T16:42:24.471Z,99030.04
2023-02-22T16:44:55.483Z,99035.91
2023-02-22T16:47:23.875Z,99031.92
2023-02-22T16:49:57.230Z,99034.98
2023-02-22T16:52:25.960Z,99036.84
2023-02-22T16:54:55.045Z,99042.16
2023-02-22T16:57:29.029Z,99045.95
2023-02-22T17:00:00.095Z,99046.58
2023-02-22T17:02:33.974Z,99046.55
2023-02-22T17:05:02.650Z,99049.60
2023-02-22T17:07:36.112Z,99056.11
2023-02-22T17:10:04.739Z,99052.75
2023-02-22T17:12:33.235Z,99054.56
2023-02-22T17:15:14.423Z,99059.62
2023-02-22T17:17:43.202Z,99060.92
2023-02-22T17:20:21.167Z,99062.45
2023-02-22T17:22:50.018Z,99063.06
2023-02-22T17:25:25.537Z,99062.61
2023-02-22T17:27:56.934Z,99063.89
2023-02-22T17:30:31.367Z,99065.39
2023-02-22T17:33:04.717Z,99063.98
2023-02-22T17:35:37.568Z,99062.53
2023-02-22T17:38:09.925Z,99066.78
2023-02-22T17:40:48.190Z,99066.33
2023-02-22T17:43:18.068Z,99066.92
2023-02-22T17:45:47.025Z,99068.83
2023-02-22T17:48:18.019Z,99075.48
2023-02-22T17:50:49.913Z,99068.02
2023-02-22T17:53:22.772Z,99070.02
2023-02-22T17:55:51.820Z,99073.71
2023-02-22T17:58:23.804Z,99071.54
2023-02-22T18:00:59.259Z,99067.85
2023-02-22T18:03:33.159Z,99070.03
2023-02-22T18:06:06.097Z,99062.88
2023-02-22T18:08:37.583Z,99060.72
2023-02-22T18:11:11.948Z,99061.34
2023-02-22T18:13:40.647Z,99058.48
2023-02-22T18:16:16.274Z,99057.91
2023-02-22T18:18:44.894Z,99052.46
2023-02-22T18:21:18.414Z,99056.91
2023-02-22T18:23:47.486Z,99059.26
2023-02-22T18:26:23.896Z,99061.77
2023-02-22T18:29:01.221Z,99063.23
2023-02-22T18:31:30.097Z,99062.63
2023-02-22T18:34:03.539Z,99067.55
2023-02-22T18:36:38.392Z,99062.98
2023-02-22T18:39:11.848Z,99062.52
2023-02-22T18:41:40.639Z,99067.05
2023-02-22T18:44:11.182Z,99068.98
2023-02-22T18:46:45.354Z,99076.61
2023-02-22T18:49:19.662Z,99083.70
2023-02-22T18:51:50.520Z,99078.72
2023-02-22T18:54:26.228Z,99083.89
2023-02-22T18:57:03.686Z,99083.89
2023-02-22T18:59:38.429Z,99087.86
2023-02-22T19:02:19.676Z,99093.55
2023-02-22T19:04:55.233Z,99088.55
2023-02-22T19:07:27.239Z,99091.27
2023-02-22T19:10:03.775Z,99094.17
2023-02-22T19:12:37.636Z,99093.64
2023-02-22T19:15:12.027Z,99091.39
2023-02-22T19:17:48.408Z,99098.28
2023-02-22T19:20:25.726Z,99099.64
2023-02-22T19:22:57.558Z,99100.83
2023-02-22T19:25:28.765Z,99102.88
2023-02-22T19:28:09.749Z,99101.14
2023-02-22T19:30:48.909Z,99107.15
2023-02-22T19:33:26.249Z,99103.35
2023-02-22T19:36:06.201Z,99106.59
2023-02-22T19:38:41.870Z,99104.50
2023-02-22T19:41:21.948Z,99108.23
2023-02-22T19:44:04.942Z,99106.80
2023-02-22T19:46:36.689Z,99112.25
2023-02-22T19:49:20.010Z,99112.20
2023-02-22T19:52:03.929Z,99112.66
2023-02-22T19:54:45.129Z,99115.77
2023-02-22T19:57:29.582Z,99115.60
2023-02-22T20:00:24.651Z,99112.81
2023-02-22T20:03:13.534Z,99114.02
2023-02-22T20:05:45.633Z,99120.58
2023-02-22T20:08:28.660Z,99121.66
2023-02-22T20:10:59.640Z,99121.68
2023-02-22T20:13:34.134Z,99120.52
2023-02-22T20:16:02.976Z,99127.99
2023-02-22T20:18:31.712Z,99124.41
2023-02-22T20:21:09.985Z,99125.73
2023-02-22T20:23:44.496Z,99127.84
2023-02-22T20:26:24.295Z,99125.80
2023-02-22T20:28:53.610Z,99126.68
2023-02-22T20:31:22.624Z,99122.92
2023-02-22T20:33:55.564Z,99124.88
2023-02-22T20:36:24.561Z,99123.73
2023-02-22T20:38:57.488Z,99120.83
2023-02-22T20:41:32.300Z,99120.86
2023-02-22T20:44:02.186Z,99121.09
2023-02-22T20:46:31.785Z,99126.16
2023-02-22T20:49:02.173Z,99126.90
2023-02-22T20:51:30.998Z,99125.23
2023-02-22T20:54:02.473Z,99121.61
2023-02-22T20:56:32.252Z,99119.06
2023-02-22T20:59:02.662Z,99121.65
2023-02-22T21:01:34.541Z,99120.61
2023-02-22T21:04:04.929Z,99121.48
2023-02-22T21:06:37.206Z,99126.48
2023-02-22T21:09:12.497Z,99127.17
2023-02-22T21:11:42.304Z,99131.30
2023-02-22T21:14:16.743Z,99129.23
2023-02-22T21:16:49.471Z,99128.03
2023-02-22T21:19:30.754Z,99128.02
2023-02-22T21:22:06.986Z,99122.69
2023-02-22T21:24:40.953Z,99125.44
2023-02-22T21:27:12.248Z,99123.73
2023-02-22T21:29:41.160Z,99125.31
2023-02-22T21:32:14.030Z,99124.13
2023-02-22T21:34:45.022Z,99123.14
2023-02-22T21:37:18.188Z,99130.07
2023-02-22T21:39:47.786Z,99128.89
2023-02-22T21:42:16.221Z,99130.67
2023-02-22T21:44:56.399Z,99131.92
2023-02-22T21:47:25.175Z,99129.00
2023-02-22T21:49:56.862Z,99125.21
2023-02-22T21:52:33.346Z,99128.62
2023-02-22T21:55:06.368Z,99129.30
2023-02-22T21:57:35.094Z,99129.13
2023-02-22T22:00:29.008Z,99126.52
2023-02-22T22:03:08.640Z,99131.48
2023-02-22T22:05:47.735Z,99127.84
2023-02-22T22:08:22.177Z,99123.52
2023-02-22T22:10:58.927Z,99124.20
2023-02-22T22:13:30.696Z,99121.98
2023-02-22T22:16:10.237Z,99117.84
2023-02-22T22:18:50.509Z,99119.41
2023-02-22T22:21:24.189Z,99121.00
2023-02-22T22:23:58.826Z,99120.05
2023-02-22T22:26:27.514Z,99120.64
2023-02-22T22:29:04.388Z,99121.55
2023-02-22T22:31:33.198Z,99125.38
2023-02-22T22:34:02.206Z,99124.02
2023-02-22T22:36:30.872Z,99125.27
2023-02-22T22:39:13.100Z,99126.14
2023-02-22T22:41:44.919Z,99131.35
2023-02-22T22:44:17.515Z,99127.95
2023-02-22T22:46:49.331Z,99131.09
2023-02-22T22:49:20.701Z,99126.84
2023-02-22T22:51:54.807Z,99133.05
2023-02-22T22:54:26.593Z,99133.23
2023-02-22T22:56:58.096Z,99133.07
2023-02-22T22:59:30.719Z,99135.16
2023-02-22T23:02:04.759Z,99133.63
2023-02-22T23:04:40.391Z,99131.90
2023-02-22T23:07:17.193Z,99129.32
2023-02-22T23:09:56.888Z,99129.48
2023-02-22T23:12:33.638Z,99131.02
2023-02-22T23:15:03.793Z,99129.64
2023-02-22T23:17:45.781Z,99128.95
2023-02-22T23:20:23.732Z,99127.05
2023-02-22T23:22:58.739Z,99125.67
2023-02-22T23:25:38.315Z,99127.94
2023-02-22T23:28:15.548Z,99125.52
2023-02-22T23:30:57.111Z,99127.24
2023-02-22T23:33:34.467Z,99127.42
2023-02-22T23:36:11.205Z,99127.96
2023-02-22T23:39:03.590Z,99126.80
2023-02-22T23:41:41.290Z,99126.13
2023-02-22T23:44:28.041Z,99123.21
2023-02-22T23:47:16.160Z,99125.98
2023-02-22T23:50:06.657Z,99126.70
2023-02-22T23:52:53.697Z,99125.50
2023-02-22T23:55:39.288Z,99123.27
2023-02-22T23:58:27.685Z,99125.03
